createdAt,value
2018-05-15T00:04:39.143Z,5.04
2018-05-15T00:10:34.208Z,3.02
2018-05-15T00:16:29.186Z,2.98
2018-05-15T00:22:24.154Z,2.27
2018-05-15T00:28:19.174Z,4.03
2018-05-15T00:34:14.249Z,5.13
2018-05-15T00:40:09.187Z,1.88
2018-05-15T00:46:04.210Z,4.17
2018-05-15T00:51:59.220Z,3.74
2018-05-15T00:57:54.203Z,2.69
2018-05-15T01:03:49.180Z,6.32
2018-05-15T01:09:44.260Z,2.13
2018-05-15T01:15:39.217Z,3.15
2018-05-15T01:21:34.280Z,2.58
2018-05-15T01:27:29.240Z,6.39
2018-05-15T01:33:24.338Z,3.49
2018-05-15T01:39:19.303Z,3.42
2018-05-15T01:45:14.258Z,4.06
2018-05-15T01:51:09.232Z,2.96
2018-05-15T01:57:04.245Z,4.53
2018-05-15T02:02:59.227Z,3.28
2018-05-15T02:08:54.231Z,3.27
2018-05-15T02:14:49.232Z,4.75
2018-05-15T02:20:44.253Z,3.38
2018-05-15T02:26:39.256Z,5.56
2018-05-15T02:32:34.225Z,5.89
2018-05-15T02:38:29.256Z,5.01
2018-05-15T02:44:24.244Z,4.9
2018-05-15T02:50:19.251Z,3.68
2018-05-15T02:56:14.281Z,15.5
2018-05-15T03:02:09.246Z,3.14
2018-05-15T03:08:04.268Z,5.62
2018-05-15T03:13:59.290Z,6.5
2018-05-15T03:19:54.310Z,6.89
2018-05-15T03:25:49.288Z,5.08
2018-05-15T03:31:44.352Z,4.25
2018-05-15T03:37:39.261Z,5.11
2018-05-15T03:43:34.264Z,7.11
2018-05-15T03:49:29.334Z,6.32
2018-05-15T03:55:24.288Z,5.43
2018-05-15T04:01:19.311Z,6.54
2018-05-15T04:07:14.273Z,5.02
2018-05-15T04:13:09.271Z,3.06
2018-05-15T04:19:04.295Z,5.32
2018-05-15T04:24:59.304Z,5.95
2018-05-15T04:30:54.310Z,4.52
2018-05-15T04:36:49.335Z,6.39
2018-05-15T04:42:44.321Z,7.7
2018-05-15T04:48:39.314Z,10.53
2018-05-15T04:54:34.353Z,7.53
2018-05-15T05:00:29.356Z,8.87
2018-05-15T05:06:24.363Z,4.7
2018-05-15T05:12:19.338Z,7.92
2018-05-15T05:18:14.317Z,9.61
2018-05-15T05:24:09.374Z,9.39
2018-05-15T05:30:04.388Z,8.25
2018-05-15T05:35:59.369Z,9.33
2018-05-15T05:41:54.334Z,8.78
2018-05-15T05:47:49.329Z,11.86
2018-05-15T05:53:44.351Z,8.02
2018-05-15T05:59:39.341Z,8.37
2018-05-15T06:05:34.387Z,7.12
2018-05-15T06:11:29.383Z,7.34
2018-05-15T06:17:24.343Z,7.11
2018-05-15T06:23:19.371Z,8.52
2018-05-15T06:29:14.436Z,8.1
2018-05-15T06:35:09.359Z,9.99
2018-05-15T06:41:04.378Z,9.24
2018-05-15T06:46:59.419Z,6.49
2018-05-15T06:53:01.444Z,6.11
2018-05-15T06:58:49.385Z,4.08
2018-05-15T07:04:44.403Z,4.34
2018-05-15T07:10:39.425Z,5.79
2018-05-15T07:16:34.439Z,6.76
2018-05-15T07:22:29.398Z,4.63
2018-05-15T07:28:24.430Z,7.43
2018-05-15T07:34:19.415Z,9.82
2018-05-15T07:40:14.429Z,12.7
2018-05-15T07:46:09.441Z,10.88
2018-05-15T07:52:04.464Z,8.9
2018-05-15T07:57:59.442Z,5.56
2018-05-15T08:03:54.436Z,4.27
2018-05-15T08:09:49.573Z,3.96
2018-05-15T08:15:44.444Z,6.41
2018-05-15T08:21:39.453Z,5.42
2018-05-15T08:27:34.473Z,7.2
2018-05-15T08:33:29.464Z,6.94
2018-05-15T08:39:24.467Z,5.07
2018-05-15T08:45:19.496Z,3.84
2018-05-15T08:51:14.545Z,4.4
2018-05-15T08:57:09.456Z,5.07
2018-05-15T09:03:04.469Z,5.09
2018-05-15T09:08:59.515Z,3.59
2018-05-15T09:14:54.501Z,2.91
2018-05-15T09:20:49.468Z,3.17
2018-05-15T09:26:44.498Z,4.46
2018-05-15T09:32:39.503Z,4.46
2018-05-15T09:38:34.549Z,3.89
2018-05-15T09:44:29.491Z,4.8
2018-05-15T09:50:24.508Z,5.22
2018-05-15T09:56:19.529Z,4.78
2018-05-15T10:02:14.550Z,5.17
2018-05-15T10:08:09.695Z,3.93
2018-05-15T10:14:04.658Z,3.39
2018-05-15T10:19:59.525Z,2.93
2018-05-15T10:25:54.571Z,3.35
2018-05-15T10:31:49.588Z,2.96
2018-05-15T10:37:44.591Z,2.03
2018-05-15T10:43:39.591Z,4.05
2018-05-15T10:49:34.580Z,3.08
2018-05-15T10:55:29.575Z,3.37
2018-05-15T11:01:24.602Z,6.73
2018-05-15T11:07:19.580Z,5.97
2018-05-15T11:13:14.669Z,2.63
2018-05-15T11:19:09.595Z,4.07
2018-05-15T11:25:04.756Z,3.02
2018-05-15T11:30:59.570Z,1.64
2018-05-15T11:36:54.609Z,2.06
2018-05-15T11:42:49.575Z,2.3
2018-05-15T11:48:45.327Z,1.73
2018-05-15T11:54:39.603Z,2.99
2018-05-15T12:00:34.641Z,3.94
2018-05-15T12:06:29.733Z,2.9
2018-05-15T12:12:24.724Z,1.96
2018-05-15T12:18:19.631Z,3.51
2018-05-15T12:24:14.637Z,2.91
2018-05-15T12:30:09.634Z,2.59
2018-05-15T12:36:04.623Z,2.61
2018-05-15T12:41:59.829Z,3.08
2018-05-15T12:47:54.704Z,2.28
2018-05-15T12:53:49.756Z,3.41
2018-05-15T12:59:44.692Z,1.64
2018-05-15T13:05:39.725Z,1.95
2018-05-15T13:11:34.684Z,1.85
2018-05-15T13:17:29.846Z,1.59
2018-05-15T13:23:24.660Z,0.98
2018-05-15T13:29:19.689Z,2.54
2018-05-15T13:35:14.708Z,4.06
2018-05-15T13:41:09.694Z,1.58
2018-05-15T13:47:04.721Z,2.78
2018-05-15T13:52:59.777Z,1.21
2018-05-15T13:58:54.713Z,1.83
2018-05-15T14:04:49.675Z,2
2018-05-15T14:10:44.716Z,3.69
2018-05-15T14:16:39.724Z,1.18
2018-05-15T14:22:34.708Z,1.77
2018-05-15T14:28:29.729Z,1.4
2018-05-15T14:34:24.750Z,1.53
2018-05-15T14:40:19.743Z,1.1
2018-05-15T14:46:14.763Z,1.74
2018-05-15T14:52:09.756Z,2.08
2018-05-15T14:58:04.722Z,0.87
2018-05-15T15:03:59.758Z,2.34
2018-05-15T15:09:54.767Z,0.9
2018-05-15T15:15:49.752Z,2.37
2018-05-15T15:21:44.753Z,1.64
2018-05-15T15:27:39.743Z,2.03
2018-05-15T15:33:34.793Z,1.91
2018-05-15T15:39:29.804Z,1.97
2018-05-15T15:45:24.788Z,1.85
2018-05-15T15:51:19.789Z,1.58
2018-05-15T15:57:14.809Z,2.16
2018-05-15T16:03:09.866Z,1.94
2018-05-15T16:09:04.905Z,3.41
2018-05-15T16:14:59.790Z,2.15
2018-05-15T16:20:54.784Z,2.12
2018-05-15T16:26:50.038Z,1.91
2018-05-15T16:32:44.787Z,3.83
2018-05-15T16:38:39.833Z,1.45
2018-05-15T16:44:34.801Z,3.69
2018-05-15T16:50:29.820Z,3.01
2018-05-15T16:56:24.853Z,1.88
2018-05-15T17:02:19.892Z,2.85
2018-05-15T17:08:14.921Z,1.8
2018-05-15T17:14:09.814Z,3.69
2018-05-15T17:20:05.085Z,1.85
2018-05-15T17:25:59.848Z,4.53
2018-05-15T17:31:54.873Z,2.19
2018-05-15T17:37:49.858Z,2.9
2018-05-15T17:43:44.874Z,2.07
2018-05-15T17:49:39.934Z,2.86
2018-05-15T17:55:34.858Z,1.61
2018-05-15T18:01:29.884Z,2.57
2018-05-15T18:07:24.863Z,1.63
2018-05-15T18:13:19.875Z,4.22
2018-05-15T18:19:14.862Z,1.86
2018-05-15T18:25:09.876Z,2.38
2018-05-15T18:31:04.887Z,2.59
2018-05-15T18:36:59.974Z,2.82
2018-05-15T18:42:54.900Z,1.92
2018-05-15T18:48:49.928Z,2.03
2018-05-15T18:54:44.947Z,3.64
2018-05-15T19:00:39.925Z,3.04
2018-05-15T19:06:34.903Z,2.8
2018-05-15T19:12:29.873Z,4.37
2018-05-15T19:18:24.905Z,3.26
2018-05-15T19:24:19.894Z,4.57
2018-05-15T19:30:15.393Z,2.72
2018-05-15T19:36:09.955Z,2.67
2018-05-15T19:42:04.888Z,3.62
2018-05-15T19:47:59.919Z,3.59
2018-05-15T19:53:54.889Z,3.41
2018-05-15T19:59:49.950Z,3.12
2018-05-15T20:05:44.949Z,2.79
2018-05-15T20:11:40.001Z,2.24
2018-05-15T20:17:34.933Z,1.63
2018-05-15T20:23:29.967Z,2.37
2018-05-15T20:29:24.951Z,3.73
2018-05-15T20:35:19.952Z,2.7
2018-05-15T20:41:14.928Z,3.66
2018-05-15T20:47:09.994Z,2.6
2018-05-15T20:53:04.982Z,4.21
2018-05-15T20:58:59.977Z,2.6
2018-05-15T21:04:55.133Z,2.06
2018-05-15T21:10:49.999Z,1.71
2018-05-15T21:16:45.007Z,3.32
2018-05-15T21:22:39.960Z,6.11
2018-05-15T21:28:34.983Z,2.89
2018-05-15T21:34:29.983Z,3.45
2018-05-15T21:40:25.099Z,3.02
2018-05-15T21:46:20.044Z,2.25
2018-05-15T21:52:14.993Z,5.35
2018-05-15T21:58:10.021Z,3.49
2018-05-15T22:04:05.014Z,2.3
2018-05-15T22:10:00.046Z,3.47
2018-05-15T22:15:55.016Z,2.49
2018-05-15T22:21:50.050Z,7.58
2018-05-15T22:27:45.007Z,3.04
2018-05-15T22:33:39.997Z,2.67
2018-05-15T22:39:35.033Z,3.8
2018-05-15T22:45:30.015Z,3.9
2018-05-15T22:51:25.027Z,4.92
2018-05-15T22:57:20.047Z,2.38
2018-05-15T23:03:15.082Z,4.14
2018-05-15T23:09:10.052Z,3.84
2018-05-15T23:15:05.185Z,3.76
2018-05-15T23:21:00.054Z,4.95
2018-05-15T23:26:55.061Z,5.23
2018-05-15T23:32:50.042Z,6.55
2018-05-15T23:38:45.032Z,4.71
2018-05-15T23:44:40.066Z,6.03
2018-05-15T23:50:35.156Z,3.13
2018-05-15T23:56:30.114Z,3.84
